createdAt,value
2023-04-28T00:00:26.323Z,32.21
2023-04-28T00:03:01.038Z,32.25
2023-04-28T00:05:36.556Z,32.13
2023-04-28T00:08:09.380Z,32.40
2023-04-28T00:10:43.169Z,32.28
2023-04-28T00:13:17.808Z,32.39
2023-04-28T00:15:50.182Z,31.89
2023-04-28T00:18:26.488Z,32.24
2023-04-28T00:21:02.090Z,32.40
2023-04-28T00:23:34.765Z,32.54
2023-04-28T00:26:11.363Z,32.58
2023-04-28T00:28:43.264Z,32.63
2023-04-28T00:31:30.205Z,32.63
2023-04-28T00:34:05.667Z,32.75
2023-04-28T00:36:37.253Z,32.69
2023-04-28T00:39:11.284Z,32.93
2023-04-28T00:41:59.188Z,32.94
2023-04-28T00:44:30.696Z,33.01
2023-04-28T00:47:05.059Z,33.35
2023-04-28T00:49:36.225Z,33.45
2023-04-28T00:52:09.277Z,33.57
2023-04-28T00:54:40.681Z,33.73
2023-04-28T00:57:13.386Z,33.80
2023-04-28T00:59:43.679Z,33.98
2023-04-28T01:02:18.034Z,33.78
2023-04-28T01:04:49.207Z,34.25
2023-04-28T01:07:19.543Z,34.06
2023-04-28T01:09:49.717Z,34.43
2023-04-28T01:12:21.747Z,34.61
2023-04-28T01:14:52.888Z,34.83
2023-04-28T01:17:23.355Z,34.60
2023-04-28T01:19:53.519Z,34.82
2023-04-28T01:22:23.630Z,34.94
2023-04-28T01:24:55.774Z,35.02
2023-04-28T01:27:26.835Z,35.11
2023-04-28T01:29:57.733Z,35.18
2023-04-28T01:32:28.265Z,35.35
2023-04-28T01:34:58.246Z,35.42
2023-04-28T01:37:28.617Z,35.50
2023-04-28T01:40:00.873Z,35.55
2023-04-28T01:42:31.053Z,35.73
2023-04-28T01:45:01.412Z,35.77
2023-04-28T01:47:31.544Z,35.81
2023-04-28T01:50:02.156Z,35.83
2023-04-28T01:52:32.668Z,35.91
2023-04-28T01:55:05.023Z,36.10
2023-04-28T01:57:35.930Z,36.19
2023-04-28T02:00:07.323Z,35.91
2023-04-28T02:02:38.065Z,36.23
2023-04-28T02:05:09.313Z,36.39
2023-04-28T02:07:39.812Z,36.44
2023-04-28T02:10:12.785Z,36.56
2023-04-28T02:12:43.308Z,36.60
2023-04-28T02:15:14.922Z,36.53
2023-04-28T02:17:45.232Z,36.50
2023-04-28T02:20:16.102Z,36.61
2023-04-28T02:22:46.111Z,36.59
2023-04-28T02:25:18.236Z,36.59
2023-04-28T02:27:48.412Z,36.69
2023-04-28T02:30:18.788Z,36.81
2023-04-28T02:32:48.724Z,36.80
2023-04-28T02:35:19.537Z,36.86
2023-04-28T02:37:49.888Z,36.85
2023-04-28T02:40:21.718Z,37.02
2023-04-28T02:42:52.128Z,37.05
2023-04-28T02:45:22.719Z,37.08
2023-04-28T02:47:53.043Z,37.15
2023-04-28T02:50:23.038Z,37.07
2023-04-28T02:52:52.592Z,37.01
2023-04-28T02:55:25.338Z,37.02
2023-04-28T02:57:55.553Z,36.98
2023-04-28T03:00:25.696Z,37.10
2023-04-28T03:02:55.979Z,36.95
2023-04-28T03:05:26.376Z,37.00
2023-04-28T03:07:57.171Z,36.94
2023-04-28T03:10:29.487Z,36.90
2023-04-28T03:12:59.535Z,36.77
2023-04-28T03:15:29.944Z,36.74
2023-04-28T03:18:01.900Z,36.84
2023-04-28T03:20:32.549Z,36.78
2023-04-28T03:23:04.139Z,36.86
2023-04-28T03:25:36.924Z,36.86
2023-04-28T03:28:07.489Z,36.93
2023-04-28T03:30:38.196Z,36.75
2023-04-28T03:33:08.739Z,36.82
2023-04-28T03:35:39.184Z,36.77
2023-04-28T03:38:09.402Z,36.81
2023-04-28T03:40:42.194Z,36.78
2023-04-28T03:43:11.828Z,36.84
2023-04-28T03:45:43.114Z,37.06
2023-04-28T03:48:12.949Z,36.95
2023-04-28T03:50:42.998Z,37.01
2023-04-28T03:53:13.068Z,37.06
2023-04-28T03:55:44.998Z,36.79
2023-04-28T03:58:15.406Z,36.91
2023-04-28T04:00:46.027Z,36.81
2023-04-28T04:03:17.087Z,37.07
2023-04-28T04:05:48.092Z,37.05
2023-04-28T04:08:18.303Z,37.09
2023-04-28T04:10:50.730Z,37.29
2023-04-28T04:13:21.261Z,37.21
2023-04-28T04:15:53.084Z,37.25
2023-04-28T04:18:23.027Z,37.33
2023-04-28T04:20:54.514Z,37.46
2023-04-28T04:23:24.810Z,37.53
2023-04-28T04:25:56.771Z,37.56
2023-04-28T04:28:27.371Z,37.59
2023-04-28T04:30:57.863Z,37.72
2023-04-28T04:33:28.754Z,37.73
2023-04-28T04:35:59.105Z,37.96
2023-04-28T04:38:29.028Z,37.97
2023-04-28T04:41:01.445Z,38.12
2023-04-28T04:43:31.825Z,38.26
2023-04-28T04:46:04.396Z,38.24
2023-04-28T04:48:34.496Z,38.31
2023-04-28T04:51:04.243Z,38.47
2023-04-28T04:53:34.576Z,38.74
2023-04-28T04:56:06.527Z,38.56
2023-04-28T04:58:36.839Z,38.56
2023-04-28T05:01:07.099Z,38.73
2023-04-28T05:03:37.571Z,38.77
2023-04-28T05:06:08.037Z,38.70
2023-04-28T05:08:38.800Z,38.90
2023-04-28T05:11:11.179Z,39.00
2023-04-28T05:13:41.645Z,39.01
2023-04-28T05:16:12.115Z,39.11
2023-04-28T05:18:42.366Z,39.01
2023-04-28T05:21:13.122Z,39.14
2023-04-28T05:23:43.146Z,39.09
2023-04-28T05:26:15.779Z,38.86
2023-04-28T05:28:46.328Z,39.10
2023-04-28T05:31:17.295Z,39.28
2023-04-28T05:33:47.774Z,39.04
2023-04-28T05:36:18.551Z,39.19
2023-04-28T05:38:48.627Z,39.28
2023-04-28T05:41:20.584Z,39.31
2023-04-28T05:43:51.621Z,39.37
2023-04-28T05:46:30.073Z,39.51
2023-04-28T05:49:01.466Z,39.26
2023-04-28T05:51:31.151Z,39.27
2023-04-28T05:54:01.841Z,39.40
2023-04-28T05:56:33.817Z,39.44
2023-04-28T05:59:05.313Z,39.40
2023-04-28T06:01:35.434Z,39.47
2023-04-28T06:04:06.123Z,39.13
2023-04-28T06:06:36.787Z,39.32
2023-04-28T06:09:07.276Z,39.34
2023-04-28T06:11:39.473Z,39.18
2023-04-28T06:14:09.682Z,39.03
2023-04-28T06:16:40.071Z,39.24
2023-04-28T06:19:10.811Z,39.42
2023-04-28T06:21:42.152Z,39.25
2023-04-28T06:24:12.527Z,39.05
2023-04-28T06:26:45.949Z,39.25
2023-04-28T06:29:16.994Z,39.15
2023-04-28T06:31:46.933Z,39.06
2023-04-28T06:34:17.784Z,39.07
2023-04-28T06:36:48.237Z,39.21
2023-04-28T06:39:18.544Z,38.99
2023-04-28T06:41:50.643Z,39.08
2023-04-28T06:44:21.175Z,39.40
2023-04-28T06:46:51.217Z,39.34
2023-04-28T06:49:21.976Z,39.27
2023-04-28T06:51:51.669Z,39.08
2023-04-28T06:54:21.210Z,39.43
2023-04-28T06:56:53.537Z,39.05
2023-04-28T06:59:23.184Z,39.17
2023-04-28T07:01:53.673Z,39.27
2023-04-28T07:04:24.397Z,39.39
2023-04-28T07:06:54.442Z,39.44
2023-04-28T07:09:25.026Z,39.29
2023-04-28T07:11:58.675Z,39.04
2023-04-28T07:14:29.105Z,39.17
2023-04-28T07:16:59.523Z,39.09
2023-04-28T07:19:29.833Z,38.86
2023-04-28T07:21:59.978Z,38.95
2023-04-28T07:24:29.870Z,38.84
2023-04-28T07:27:02.280Z,38.85
2023-04-28T07:29:35.005Z,38.94
2023-04-28T07:32:07.503Z,38.94
2023-04-28T07:34:38.659Z,38.72
2023-04-28T07:37:09.215Z,38.74
2023-04-28T07:39:39.853Z,39.02
2023-04-28T07:42:13.195Z,38.48
2023-04-28T07:44:43.364Z,38.57
2023-04-28T07:47:14.095Z,38.65
2023-04-28T07:49:44.711Z,38.56
2023-04-28T07:52:14.451Z,38.65
2023-04-28T07:54:44.440Z,38.87
2023-04-28T07:57:16.547Z,38.55
2023-04-28T07:59:46.676Z,38.71
2023-04-28T08:02:17.740Z,38.40
2023-04-28T08:04:48.864Z,38.20
2023-04-28T08:07:19.494Z,38.39
2023-04-28T08:09:50.352Z,38.67
2023-04-28T08:12:24.198Z,38.12
2023-04-28T08:14:54.435Z,38.22
2023-04-28T08:17:24.674Z,37.85
2023-04-28T08:19:55.015Z,37.90
2023-04-28T08:22:25.376Z,38.04
2023-04-28T08:24:55.705Z,38.03
2023-04-28T08:27:27.846Z,37.74
2023-04-28T08:29:58.148Z,37.63
2023-04-28T08:32:28.710Z,37.84
2023-04-28T08:34:59.001Z,37.78
2023-04-28T08:37:30.384Z,37.85
2023-04-28T08:40:09.984Z,37.20
2023-04-28T08:42:42.871Z,37.46
2023-04-28T08:45:17.037Z,37.67
2023-04-28T08:47:50.004Z,37.65
2023-04-28T08:50:25.018Z,37.05
2023-04-28T08:52:57.127Z,37.76
2023-04-28T08:55:29.314Z,37.04
2023-04-28T08:58:02.991Z,37.51
2023-04-28T09:00:32.892Z,37.37
2023-04-28T09:03:03.610Z,37.33
2023-04-28T09:05:33.480Z,37.26
2023-04-28T09:08:06.247Z,37.21
2023-04-28T09:10:37.305Z,36.99
2023-04-28T09:13:09.289Z,37.19
2023-04-28T09:15:41.699Z,37.37
2023-04-28T09:18:17.395Z,37.65
2023-04-28T09:20:48.273Z,37.35
2023-04-28T09:23:21.446Z,37.41
2023-04-28T09:26:03.861Z,36.79
2023-04-28T09:28:37.231Z,37.10
2023-04-28T09:31:07.745Z,37.11
2023-04-28T09:33:38.681Z,37.07
2023-04-28T09:36:08.788Z,36.84
2023-04-28T09:38:46.641Z,36.81
2023-04-28T09:41:16.964Z,37.04
2023-04-28T09:43:48.446Z,36.86
2023-04-28T09:46:32.544Z,36.32
2023-04-28T09:49:04.524Z,37.11
2023-04-28T09:51:35.007Z,36.50
2023-04-28T09:54:06.530Z,36.34
2023-04-28T09:56:40.637Z,36.67
2023-04-28T09:59:13.671Z,36.81
2023-04-28T10:01:46.081Z,36.71
2023-04-28T10:04:17.799Z,36.21
2023-04-28T10:06:48.280Z,36.02
2023-04-28T10:09:19.283Z,36.24
2023-04-28T10:11:49.741Z,36.14
2023-04-28T10:14:23.234Z,36.15
2023-04-28T10:16:55.314Z,35.60
2023-04-28T10:19:26.302Z,36.02
2023-04-28T10:22:17.688Z,35.61
2023-04-28T10:25:22.584Z,35.92
2023-04-28T10:27:54.012Z,36.02
2023-04-28T10:30:29.950Z,35.86
2023-04-28T10:33:27.813Z,35.69
2023-04-28T10:35:58.473Z,35.76
2023-04-28T10:38:28.418Z,35.87
2023-04-28T10:41:02.819Z,35.99
2023-04-28T10:43:40.848Z,35.56
2023-04-28T10:46:13.342Z,35.73
2023-04-28T10:49:10.456Z,35.81
2023-04-28T10:51:40.574Z,35.56
2023-04-28T10:54:19.681Z,35.93
2023-04-28T10:57:23.791Z,35.79
2023-04-28T10:59:54.591Z,35.79
2023-04-28T11:02:45.085Z,35.63
2023-04-28T11:05:22.282Z,35.51
2023-04-28T11:08:35.033Z,35.92
2023-04-28T11:11:26.514Z,35.54
2023-04-28T11:13:58.807Z,35.82
2023-04-28T11:16:28.898Z,35.57
2023-04-28T11:19:07.698Z,35.29
2023-04-28T11:21:37.834Z,35.38
2023-04-28T11:24:13.515Z,35.29
2023-04-28T11:26:44.710Z,34.77
2023-04-28T11:29:16.841Z,34.70
2023-04-28T11:31:53.042Z,34.72
2023-04-28T11:34:27.381Z,35.03
2023-04-28T11:36:58.102Z,34.81
2023-04-28T11:39:32.321Z,34.68
2023-04-28T11:42:04.629Z,35.04
2023-04-28T11:44:35.258Z,35.09
2023-04-28T11:47:07.800Z,34.68
2023-04-28T11:49:48.646Z,34.90
2023-04-28T11:52:18.779Z,34.65
2023-04-28T11:54:58.330Z,34.56
2023-04-28T11:57:28.582Z,35.03
2023-04-28T12:00:20.006Z,34.67
2023-04-28T12:02:51.411Z,34.90
2023-04-28T12:05:24.093Z,34.66
2023-04-28T12:07:54.373Z,34.58
2023-04-28T12:10:25.000Z,34.78
2023-04-28T12:12:55.285Z,34.67
2023-04-28T12:15:25.775Z,34.85
2023-04-28T12:17:56.398Z,34.28
2023-04-28T12:20:43.114Z,34.56
2023-04-28T12:23:13.054Z,34.92
2023-04-28T12:25:49.829Z,34.85
2023-04-28T12:28:20.668Z,34.91
2023-04-28T12:30:50.688Z,34.52
2023-04-28T12:33:29.380Z,34.47
2023-04-28T12:36:02.386Z,34.75
2023-04-28T12:38:34.952Z,34.88
2023-04-28T12:41:05.622Z,34.52
2023-04-28T12:43:36.057Z,34.63
2023-04-28T12:46:06.418Z,35.05
2023-04-28T12:48:36.904Z,34.47
2023-04-28T12:51:09.369Z,34.95
2023-04-28T12:53:39.825Z,34.96
2023-04-28T12:56:10.622Z,34.67
2023-04-28T12:58:41.565Z,34.92
2023-04-28T13:01:11.501Z,35.14
2023-04-28T13:03:41.458Z,34.80
2023-04-28T13:06:14.107Z,34.71
2023-04-28T13:08:45.816Z,34.86
2023-04-28T13:11:22.879Z,34.69
2023-04-28T13:13:53.738Z,34.96
2023-04-28T13:16:25.512Z,34.63
2023-04-28T13:18:55.623Z,34.62
2023-04-28T13:21:29.281Z,34.47
2023-04-28T13:23:59.597Z,34.81
2023-04-28T13:26:30.691Z,34.66
2023-04-28T13:29:00.405Z,34.51
2023-04-28T13:31:30.729Z,34.69
2023-04-28T13:34:02.486Z,34.25
2023-04-28T13:36:35.198Z,34.25
2023-04-28T13:39:06.713Z,34.52
2023-04-28T13:41:36.312Z,33.99
2023-04-28T13:44:06.735Z,33.93
2023-04-28T13:46:36.945Z,34.00
2023-04-28T13:49:07.727Z,34.42
2023-04-28T13:51:39.392Z,34.22
2023-04-28T13:54:11.802Z,33.88
2023-04-28T13:56:42.697Z,34.45
2023-04-28T13:59:12.436Z,34.55
2023-04-28T14:01:42.827Z,34.46
2023-04-28T14:04:13.464Z,34.20
2023-04-28T14:06:46.428Z,34.10
2023-04-28T14:09:16.830Z,34.19
2023-04-28T14:11:47.327Z,33.98
2023-04-28T14:14:17.239Z,34.17
2023-04-28T14:16:48.080Z,34.19
2023-04-28T14:19:18.890Z,34.29
2023-04-28T14:21:51.171Z,34.21
2023-04-28T14:24:20.839Z,34.45
2023-04-28T14:26:51.372Z,34.28
2023-04-28T14:29:21.340Z,34.48
2023-04-28T14:31:51.178Z,34.26
2023-04-28T14:34:21.411Z,34.01
2023-04-28T14:36:53.790Z,34.38
2023-04-28T14:39:24.144Z,34.18
2023-04-28T14:41:54.522Z,34.51
2023-04-28T14:44:24.814Z,34.45
2023-04-28T14:46:55.557Z,34.53
2023-04-28T14:49:27.192Z,34.70
2023-04-28T14:52:01.192Z,34.59
2023-04-28T14:54:31.193Z,34.67
2023-04-28T14:57:01.356Z,34.77
2023-04-28T14:59:31.179Z,34.47
2023-04-28T15:02:01.861Z,34.78
2023-04-28T15:04:32.010Z,34.46
2023-04-28T15:07:04.292Z,34.52
2023-04-28T15:09:34.591Z,34.76
2023-04-28T15:12:05.115Z,34.60
2023-04-28T15:14:35.588Z,34.67
2023-04-28T15:17:06.399Z,34.41
2023-04-28T15:19:37.339Z,34.64
2023-04-28T15:22:09.546Z,34.61
2023-04-28T15:24:39.659Z,34.53
2023-04-28T15:27:09.715Z,34.64
2023-04-28T15:29:40.600Z,34.75
2023-04-28T15:32:10.826Z,34.86
2023-04-28T15:34:40.959Z,34.71
2023-04-28T15:37:43.932Z,34.87
2023-04-28T15:40:17.027Z,34.85
2023-04-28T15:42:49.640Z,34.91
2023-04-28T15:45:21.571Z,34.92
2023-04-28T15:47:53.039Z,34.94
2023-04-28T15:50:24.508Z,35.13
2023-04-28T15:52:56.750Z,34.81
2023-04-28T15:55:27.544Z,35.03
2023-04-28T15:57:58.368Z,34.75
2023-04-28T16:00:28.462Z,34.95
2023-04-28T16:02:58.591Z,35.11
2023-04-28T16:05:28.962Z,35.27
2023-04-28T16:08:01.646Z,35.02
2023-04-28T16:10:32.458Z,34.84
2023-04-28T16:13:02.685Z,35.01
2023-04-28T16:15:34.832Z,35.01
2023-04-28T16:18:05.437Z,35.10
2023-04-28T16:20:35.818Z,35.14
2023-04-28T16:23:13.754Z,34.99
2023-04-28T16:25:44.500Z,34.94
2023-04-28T16:28:14.356Z,35.11
2023-04-28T16:30:45.212Z,35.03
2023-04-28T16:33:16.720Z,35.19
2023-04-28T16:35:47.226Z,34.95
2023-04-28T16:38:19.448Z,35.36
2023-04-28T16:40:49.380Z,35.07
2023-04-28T16:43:19.992Z,34.99
2023-04-28T16:45:50.331Z,35.12
2023-04-28T16:48:22.447Z,35.03
2023-04-28T16:50:52.463Z,34.91
2023-04-28T16:53:24.442Z,35.21
2023-04-28T16:55:54.133Z,34.99
2023-04-28T16:58:25.288Z,35.43
2023-04-28T17:00:55.566Z,35.46
2023-04-28T17:03:26.163Z,35.25
2023-04-28T17:05:56.450Z,35.62
2023-04-28T17:08:28.435Z,35.19
2023-04-28T17:10:58.926Z,35.36
2023-04-28T17:13:29.213Z,35.53
2023-04-28T17:16:00.832Z,35.33
2023-04-28T17:18:37.272Z,35.38
2023-04-28T17:21:08.230Z,35.27
2023-04-28T17:23:40.868Z,35.56
2023-04-28T17:26:10.889Z,35.50
2023-04-28T17:28:41.480Z,35.53
2023-04-28T17:31:12.493Z,35.53
2023-04-28T17:33:42.748Z,35.61
2023-04-28T17:36:12.973Z,35.50
2023-04-28T17:38:45.591Z,35.51
2023-04-28T17:41:15.757Z,35.55
2023-04-28T17:43:46.473Z,35.70
2023-04-28T17:46:17.295Z,35.58
2023-04-28T17:48:47.484Z,35.52
2023-04-28T17:51:18.241Z,35.77
2023-04-28T17:53:50.902Z,35.57
2023-04-28T17:56:20.991Z,35.88
2023-04-28T17:58:50.731Z,35.89
2023-04-28T18:01:20.916Z,35.89
2023-04-28T18:03:52.347Z,35.86
2023-04-28T18:06:22.849Z,36.00
2023-04-28T18:08:54.998Z,35.95
2023-04-28T18:11:27.458Z,36.02
2023-04-28T18:13:59.137Z,35.82
2023-04-28T18:16:29.478Z,35.91
2023-04-28T18:18:59.456Z,36.01
2023-04-28T18:21:29.857Z,36.01
2023-04-28T18:24:01.998Z,36.00
2023-04-28T18:26:31.972Z,36.04
2023-04-28T18:29:02.222Z,35.95
2023-04-28T18:31:32.688Z,36.05
2023-04-28T18:34:03.601Z,35.87
2023-04-28T18:36:37.283Z,35.96
2023-04-28T18:39:09.352Z,35.97
2023-04-28T18:41:40.684Z,36.09
2023-04-28T18:44:11.210Z,35.91
2023-04-28T18:46:41.774Z,36.04
2023-04-28T18:49:13.082Z,36.08
2023-04-28T18:51:44.135Z,36.19
2023-04-28T18:54:17.550Z,36.15
2023-04-28T18:56:48.453Z,36.05
2023-04-28T18:59:18.278Z,36.16
2023-04-28T19:01:49.470Z,36.17
2023-04-28T19:04:20.294Z,36.27
2023-04-28T19:06:50.730Z,36.26
2023-04-28T19:09:23.899Z,36.15
2023-04-28T19:11:54.108Z,36.31
2023-04-28T19:14:24.315Z,36.33
2023-04-28T19:16:54.733Z,36.37
2023-04-28T19:19:25.148Z,36.22
2023-04-28T19:21:55.976Z,36.27
2023-04-28T19:24:30.071Z,36.29
2023-04-28T19:27:02.520Z,36.43
2023-04-28T19:29:33.154Z,36.42
2023-04-28T19:32:03.463Z,36.51
2023-04-28T19:34:33.663Z,36.35
2023-04-28T19:37:04.378Z,36.34
2023-04-28T19:39:36.636Z,36.60
2023-04-28T19:42:07.922Z,36.54
2023-04-28T19:44:38.613Z,36.60
2023-04-28T19:47:09.178Z,36.46
2023-04-28T19:49:39.593Z,36.41
2023-04-28T19:52:10.639Z,36.73
2023-04-28T19:54:43.838Z,36.71
2023-04-28T19:57:13.539Z,36.66
2023-04-28T19:59:43.512Z,36.71
2023-04-28T20:02:13.561Z,36.74
2023-04-28T20:04:44.000Z,36.58
2023-04-28T20:07:14.498Z,36.67
2023-04-28T20:09:46.580Z,36.73
2023-04-28T20:12:17.040Z,36.66
2023-04-28T20:14:47.550Z,36.91
2023-04-28T20:17:31.183Z,36.69
2023-04-28T20:20:01.588Z,36.64
2023-04-28T20:22:32.042Z,36.67
2023-04-28T20:25:06.354Z,36.89
2023-04-28T20:27:36.978Z,36.75
2023-04-28T20:30:08.996Z,36.54
2023-04-28T20:32:38.706Z,36.56
2023-04-28T20:35:09.530Z,36.57
2023-04-28T20:37:40.093Z,36.56
2023-04-28T20:40:14.531Z,36.52
2023-04-28T20:42:44.051Z,36.69
2023-04-28T20:45:14.589Z,36.52
2023-04-28T20:47:46.114Z,36.60
2023-04-28T20:50:16.413Z,36.66
2023-04-28T20:52:47.533Z,36.67
2023-04-28T20:55:19.798Z,36.71
2023-04-28T20:57:49.998Z,36.56
2023-04-28T21:00:20.187Z,36.40
2023-04-28T21:02:50.753Z,36.53
2023-04-28T21:05:21.149Z,36.37
2023-04-28T21:07:51.521Z,36.39
2023-04-28T21:10:23.786Z,36.59
2023-04-28T21:12:55.707Z,36.48
2023-04-28T21:15:26.217Z,36.17
2023-04-28T21:17:56.721Z,36.36
2023-04-28T21:20:26.947Z,36.23
2023-04-28T21:22:57.315Z,36.35
2023-04-28T21:25:30.007Z,36.27
2023-04-28T21:28:01.515Z,36.35
2023-04-28T21:30:32.367Z,36.27
2023-04-28T21:33:03.210Z,36.29
2023-04-28T21:35:33.610Z,36.41
2023-04-28T21:38:04.014Z,36.34
2023-04-28T21:40:36.569Z,36.43
2023-04-28T21:43:07.163Z,36.29
2023-04-28T21:45:37.728Z,36.67
2023-04-28T21:48:09.022Z,36.38
2023-04-28T21:50:39.158Z,36.33
2023-04-28T21:53:09.386Z,36.50
2023-04-28T21:55:43.399Z,36.44
2023-04-28T21:58:13.994Z,36.40
2023-04-28T22:00:47.565Z,36.65
2023-04-28T22:03:18.458Z,36.57
2023-04-28T22:05:49.135Z,36.70
2023-04-28T22:08:19.927Z,36.48
2023-04-28T22:10:52.317Z,36.54
2023-04-28T22:13:23.221Z,36.52
2023-04-28T22:15:53.182Z,36.59
2023-04-28T22:18:23.441Z,36.42
2023-04-28T22:20:53.491Z,36.57
2023-04-28T22:23:23.539Z,36.48
2023-04-28T22:25:55.615Z,36.40
2023-04-28T22:28:25.621Z,36.27
2023-04-28T22:30:55.988Z,36.29
2023-04-28T22:33:26.700Z,36.29
2023-04-28T22:35:57.138Z,36.18
2023-04-28T22:38:27.700Z,35.91
2023-04-28T22:40:58.970Z,36.04
2023-04-28T22:43:31.029Z,36.14
2023-04-28T22:46:05.122Z,36.18
2023-04-28T22:48:35.662Z,36.05
2023-04-28T22:51:05.960Z,36.02
2023-04-28T22:53:36.184Z,35.99
2023-04-28T22:56:09.314Z,35.90
2023-04-28T22:58:39.841Z,35.96
2023-04-28T23:01:09.629Z,35.98
2023-04-28T23:03:41.389Z,36.27
2023-04-28T23:06:11.246Z,35.88
2023-04-28T23:08:41.506Z,35.80
2023-04-28T23:11:12.846Z,35.85
2023-04-28T23:13:43.104Z,35.97
2023-04-28T23:16:13.009Z,35.97
2023-04-28T23:18:43.576Z,35.93
2023-04-28T23:21:14.104Z,35.74
2023-04-28T23:23:44.350Z,36.13
2023-04-28T23:26:16.591Z,36.00
2023-04-28T23:28:46.837Z,36.03
2023-04-28T23:31:17.136Z,35.91
2023-04-28T23:33:47.626Z,36.12
2023-04-28T23:36:18.077Z,36.32
2023-04-28T23:38:48.319Z,36.09
2023-04-28T23:41:20.727Z,36.16
2023-04-28T23:43:52.214Z,36.11
2023-04-28T23:46:22.512Z,36.03
2023-04-28T23:48:52.440Z,35.93
2023-04-28T23:51:22.229Z,36.02
2023-04-28T23:53:53.117Z,35.96
2023-04-28T23:56:25.281Z,36.11
2023-04-28T23:58:55.445Z,36.22
